메인 페이지
METAR-TAF:

METAR-TAF

공항 :

La Crosse, 위스콘신, 미국

위도: 43-52-46N, 경도: 091-15-24W, 고도: 199m

현재 날씨관측

예보는 29분 전, 18:53시(UTC)에 발표되었습니다.
무풍
온도 4°C
습도 56%
기압 1026 hPa
시정: 16.1km
맑음

METAR: KLSE 231853Z 00000KT 10SM CLR 04/M04 A3031 RMK AO2 SLP274 T00391044

시각: 13:22 (19:22 UTC)

예보

예보는 2 시간 2분 전, 17:20시(UTC)에 발표되었습니다.
예보 대상 시간: 23일 18시부터 24일 18시까지 (UTC)
북서5kt
시정: 10km
고도 25000ft 상공 구름 조금
23일 2100시부터 (UTC)
동남동5kt
시정: 10km
고도 25000ft 상공 구름 조금
24일 0600시부터 (UTC)
남동7kt
시정: 10km
고도 8000ft 상공 구름 많음
24일 0900시부터 (UTC)
남동19kt
시정: 8.0km
고도 3000ft 상공 흐림
약한눈, 박무
24일 1300시부터 (UTC)
남남동10kt
시정: 3.2km
고도 1500ft 상공 흐림
약한눈, 박무
24일 1500시부터 (UTC)
남남동10kt
시정: 3.2km
고도 900ft 상공 흐림
약한눈, 박무

TAF: KLSE 231720Z 2318/2418 32005KT P6SM FEW250 FM232100 12005KT P6SM FEW250 FM240600 14007KT P6SM BKN080 FM240900 14019KT 5SM -SN BR OVC030 FM241300 15010KT 2SM -SN BR OVC015 FM241500 15010KT 2SM -SN BR OVC009

4,000개 이상의 공항 관측 자료 및 예보 (METAR 및 TAF 보고).

지도상에서 검색 가능한 기상관측소가 노란 점과 빨간 점으로 표시되어 있습니다.

기상관측소 명을 보려면 표시 위로 마우스를 이동하세요.

날씨 관측과 예보를 보려면 클릭하세요.

지도 변경 : 확대하려면 엑스 표시가 있는 녹색 버튼, 축소하려면 빼기 표시가 있는 녹색 버튼, 다음 페이지의 지도를 보려면 녹색 화살표를 클릭하세요.


METAR-TAF: